Time;durP1;ratioP1;P1;durP2;ratioP2;P2;SDS_P1;SDS_P2;PMS_P1;PMS_P2;Temp;Humidity;BMP_temperature;BMP_pressure;BME280_temperature;BME280_humidity;BME280_pressure;Samples;Min_cycle;Max_cycle;Signal;HPM_P1;HPM_P2
2021/07/21 00:00:59;;;;;;;17.57;11.57;;;;;;;14.21;90.35;96654.44;5041356;28;20028;-80
2021/07/21 00:03:25;;;;;;;14.87;10.90;;;;;;;14.22;90.07;96659.59;5033470;28;20037;-78
2021/07/21 00:05:50;;;;;;;18.83;10.53;;;;;;;14.19;90.09;96662.56;5048229;28;20031;-79
2021/07/21 00:08:17;;;;;;;15.93;11.30;;;;;;;14.03;91.02;96650.22;5037110;28;20037;-79
2021/07/21 00:10:44;;;;;;;15.07;10.60;;;;;;;14.08;90.76;96655.84;5056482;28;20027;-79
2021/07/21 00:13:30;;;;;;;15.90;10.03;;;;;;;14.03;90.94;96649.41;5043855;28;20089;-79
2021/07/21 00:16:11;;;;;;;13.87;9.90;;;;;;;13.95;92.09;96657.34;5055305;28;20114;-79
2021/07/21 00:18:47;;;;;;;16.93;11.30;;;;;;;13.86;92.49;96662.66;5047935;28;20139;-79
2021/07/21 00:21:15;;;;;;;14.93;9.23;;;;;;;13.87;92.50;96658.19;5052133;28;20118;-79
2021/07/21 00:23:42;;;;;;;15.40;11.00;;;;;;;13.93;91.92;96654.88;5049359;28;20125;-79
2021/07/21 00:26:08;;;;;;;14.67;9.70;;;;;;;13.87;91.50;96659.00;5050708;28;20043;-78
2021/07/21 00:28:41;;;;;;;15.17;11.00;;;;;;;13.95;91.07;96657.34;5032433;28;20024;-79
2021/07/21 00:31:15;;;;;;;18.37;11.40;;;;;;;13.95;91.45;96652.06;5025775;28;20033;-78
2021/07/21 00:33:41;;;;;;;16.27;11.23;;;;;;;13.94;91.04;96645.94;5057276;28;20041;-78
2021/07/21 00:36:06;;;;;;;19.60;10.67;;;;;;;13.89;91.00;96648.28;5038359;28;20079;-79
2021/07/21 00:38:32;;;;;;;16.23;10.33;;;;;;;13.89;91.08;96651.75;5035410;28;20028;-80
2021/07/21 00:40:58;;;;;;;19.87;11.40;;;;;;;13.87;90.70;96650.25;5059583;28;20555;-79
2021/07/21 00:43:26;;;;;;;16.50;11.17;;;;;;;13.91;90.17;96647.09;5038855;28;20025;-78
2021/07/21 00:45:52;;;;;;;14.37;10.23;;;;;;;13.83;90.21;96652.41;5044208;28;20048;-79
2021/07/21 00:48:17;;;;;;;16.53;10.87;;;;;;;13.85;90.18;96647.81;5036355;28;20064;-79
2021/07/21 00:50:43;;;;;;;14.30;10.63;;;;;;;13.88;89.80;96650.13;5034149;28;20462;-79
2021/07/21 00:53:10;;;;;;;13.80;9.93;;;;;;;13.88;89.42;96652.75;5043843;28;20032;-79
2021/07/21 00:55:36;;;;;;;16.40;10.13;;;;;;;13.87;89.56;96647.63;5059512;28;20035;-79
2021/07/21 00:58:02;;;;;;;15.63;9.73;;;;;;;13.84;89.90;96640.03;5043378;28;20035;-79
2021/07/21 01:00:29;;;;;;;16.93;10.77;;;;;;;13.79;90.18;96635.25;5042720;28;20024;-79
2021/07/21 01:02:56;;;;;;;16.70;10.57;;;;;;;13.79;90.34;96640.53;5047349;28;20024;-80
2021/07/21 01:05:31;;;;;;;15.37;10.47;;;;;;;13.74;91.28;96639.41;5053796;28;20024;-79
2021/07/21 01:08:06;;;;;;;13.53;10.07;;;;;;;13.72;90.40;96636.13;5048457;28;20033;-79
2021/07/21 01:10:49;;;;;;;15.47;9.77;;;;;;;13.64;91.08;96636.94;5056696;28;20062;-77
2021/07/21 01:13:21;;;;;;;17.40;10.53;;;;;;;13.61;91.11;96638.09;5055325;28;20028;-80
2021/07/21 01:16:10;;;;;;;14.77;10.00;;;;;;;13.58;90.90;96646.38;5039613;28;20036;-79
2021/07/21 01:18:44;;;;;;;13.70;9.40;;;;;;;13.59;91.28;96639.28;5062106;28;20025;-79
2021/07/21 01:21:33;;;;;;;15.87;9.50;;;;;;;13.52;91.32;96631.19;5049373;28;20032;-79
2021/07/21 01:24:13;;;;;;;15.17;9.70;;;;;;;13.44;92.04;96631.19;5025440;28;20044;-79
2021/07/21 01:27:09;;;;;;;15.53;10.27;;;;;;;13.40;92.01;96638.63;5041934;28;20343;-79
2021/07/21 01:29:37;;;;;;;17.17;11.30;;;;;;;13.24;93.01;96643.91;5036015;28;20492;-79
2021/07/21 01:32:06;;;;;;;15.93;10.87;;;;;;;13.13;93.99;96638.94;5053635;28;20025;-79
2021/07/21 01:34:36;;;;;;;15.10;10.47;;;;;;;13.18;93.52;96631.38;5060093;28;20033;-79
2021/07/21 01:37:04;;;;;;;14.20;10.07;;;;;;;13.17;93.71;96629.69;5058649;28;20496;-79
2021/07/21 01:39:36;;;;;;;17.27;10.13;;;;;;;13.15;93.46;96631.69;5050275;28;20085;-79
2021/07/21 01:42:10;;;;;;;14.98;10.13;;;;;;;13.01;94.55;96627.03;5032752;28;20055;-79
2021/07/21 01:44:43;;;;;;;14.87;10.80;;;;;;;13.01;94.47;96627.91;5042162;28;20020;-79
2021/07/21 01:47:10;;;;;;;16.30;10.48;;;;;;;13.03;94.59;96628.53;5052882;28;21052;-79
2021/07/21 01:49:39;;;;;;;18.50;10.80;;;;;;;12.97;94.88;96627.38;5035379;28;20056;-79
2021/07/21 01:52:14;;;;;;;14.27;10.10;;;;;;;12.93;94.50;96633.97;5054698;28;20130;-81
2021/07/21 01:54:40;;;;;;;;;;;;;;;13.01;94.42;96625.25;5060102;28;20036;-80
2021/07/21 01:57:12;;;;;;;14.07;9.73;;;;;;;13.02;93.86;96624.25;5053244;28;19926;-80
2021/07/21 01:59:50;;;;;;;16.63;10.87;;;;;;;12.86;94.54;96627.72;5033613;28;20039;-79
2021/07/21 02:02:46;;;;;;;15.70;10.57;;;;;;;12.86;94.28;96625.06;5079683;28;20064;-79
2021/07/21 02:05:15;;;;;;;14.77;10.27;;;;;;;12.89;94.48;96626.56;5057964;28;20094;-79
2021/07/21 02:07:44;;;;;;;14.77;10.30;;;;;;;12.89;95.05;96627.38;5053742;28;20021;-78
2021/07/21 02:10:17;;;;;;;16.87;10.73;;;;;;;12.85;95.02;96631.34;5045926;28;20658;-79
2021/07/21 02:12:58;;;;;;;13.60;9.80;;;;;;;12.82;94.88;96626.38;5052332;28;20033;-79
2021/07/21 02:15:26;;;;;;;14.67;10.20;;;;;;;12.83;94.74;96621.94;5045158;28;20112;-79
2021/07/21 02:17:54;;;;;;;15.90;10.53;;;;;;;12.74;95.03;96626.38;5027935;28;20723;-79
2021/07/21 02:20:28;;;;;;;17.40;10.13;;;;;;;12.74;95.11;96629.00;5033412;28;20039;-79
2021/07/21 02:22:58;;;;;;;15.40;10.23;;;;;;;12.74;95.60;96629.84;5058453;28;20035;-78
2021/07/21 02:25:50;;;;;;;15.07;10.75;;;;;;;12.77;94.61;96628.69;5042511;28;20159;-79
2021/07/21 02:28:23;;;;;;;16.13;11.20;;;;;;;12.72;94.40;96626.53;5038009;28;20024;-79
2021/07/21 02:30:56;;;;;;;12.70;9.43;;;;;;;12.66;95.02;96627.19;5054762;28;20032;-79
2021/07/21 02:33:49;;;;;;;13.50;10.47;;;;;;;12.71;94.62;96622.25;5058827;28;20016;-80
2021/07/21 02:36:24;;;;;;;15.80;10.50;;;;;;;12.63;95.15;96626.69;5056591;28;20056;-81
2021/07/21 02:38:51;;;;;;;16.17;9.87;;;;;;;12.56;95.01;96625.69;5044773;28;20059;-79
2021/07/21 02:41:17;;;;;;;15.87;10.90;;;;;;;12.58;95.27;96624.53;5055697;28;20024;-79
2021/07/21 02:43:44;;;;;;;16.23;10.27;;;;;;;12.61;95.22;96631.28;5041172;28;20490;-80
2021/07/21 02:46:10;;;;;;;14.20;10.27;;;;;;;12.52;95.18;96630.47;5047962;28;20059;-79
2021/07/21 02:48:41;;;;;;;16.37;10.77;;;;;;;12.56;95.85;96625.69;5066313;28;20659;-79
2021/07/21 02:51:33;;;;;;;18.63;10.90;;;;;;;12.53;95.93;96624.19;5032864;28;20040;-79
2021/07/21 02:54:14;;;;;;;15.25;10.40;;;;;;;12.49;95.71;96634.25;5035477;28;20052;-79
2021/07/21 02:56:54;;;;;;;14.43;10.40;;;;;;;12.50;96.40;96632.41;5054670;28;20134;-79
2021/07/21 02:59:23;;;;;;;16.20;10.60;;;;;;;12.48;95.76;96629.13;5052937;28;20040;-79
2021/07/21 03:01:55;;;;;;;27.33;21.23;;;;;;;12.41;96.53;96625.50;5062625;28;20025;-78
2021/07/21 03:04:38;;;;;;;28.33;19.73;;;;;;;12.43;95.85;96632.25;5043221;28;20037;-79
2021/07/21 03:07:16;;;;;;;17.60;11.67;;;;;;;12.42;96.35;96629.78;5054642;28;20032;-79
2021/07/21 03:09:43;;;;;;;16.63;10.00;;;;;;;12.27;97.64;96632.19;5038761;28;20688;-79
2021/07/21 03:12:13;;;;;;;15.73;9.87;;;;;;;12.24;96.73;96628.09;5037818;28;20036;-78
2021/07/21 03:15:02;;;;;;;17.37;9.70;;;;;;;12.29;96.90;96630.22;5064917;28;20040;-79
2021/07/21 03:17:35;;;;;;;16.27;9.93;;;;;;;12.32;96.91;96634.38;5048755;28;20021;-78
2021/07/21 03:20:05;;;;;;;16.03;11.13;;;;;;;12.36;96.73;96630.41;5041929;28;20039;-78
2021/07/21 03:22:40;;;;;;;14.40;10.30;;;;;;;12.28;96.62;96633.88;5067903;28;20443;-81
2021/07/21 03:25:18;;;;;;;15.47;10.73;;;;;;;12.29;96.69;96629.41;5061534;28;20054;-78
2021/07/21 03:27:53;;;;;;;18.33;10.40;;;;;;;12.31;96.12;96630.91;5051546;28;20046;-76
2021/07/21 03:30:29;;;;;;;16.37;9.97;;;;;;;12.29;96.65;96639.97;5061747;28;20028;-80
2021/07/21 03:33:05;;;;;;;18.17;11.07;;;;;;;12.31;96.21;96637.97;5049317;28;20070;-79
2021/07/21 03:35:38;;;;;;;16.37;11.00;;;;;;;12.25;96.47;96636.81;5044558;28;20529;-78
2021/07/21 03:38:07;;;;;;;12.90;9.17;;;;;;;12.26;96.90;96643.72;5058051;28;20032;-80
2021/07/21 03:40:39;;;;;;;16.23;11.07;;;;;;;12.21;96.62;96646.03;5052007;28;20028;-79
2021/07/21 03:43:17;;;;;;;14.90;10.13;;;;;;;12.18;96.88;96643.72;5055065;28;20336;-78
2021/07/21 03:45:55;;;;;;;14.20;9.93;;;;;;;12.18;96.76;96644.53;5049911;28;20302;-79
2021/07/21 03:48:24;;;;;;;13.60;9.57;;;;;;;12.18;96.49;96654.25;5041264;28;20029;-79
2021/07/21 03:51:22;;;;;;;13.83;9.93;;;;;;;12.18;96.50;96654.25;5034512;28;20033;-79
2021/07/21 03:54:09;;;;;;;14.73;10.73;;;;;;;12.20;96.50;96657.53;5056445;28;20105;-78
2021/07/21 03:56:41;;;;;;;14.67;9.67;;;;;;;12.15;96.92;96657.22;5039377;28;20024;-79
2021/07/21 03:59:14;;;;;;;18.97;10.67;;;;;;;12.16;97.08;96661.50;5053736;28;20047;-80
2021/07/21 04:01:42;;;;;;;17.07;10.73;;;;;;;12.21;96.58;96664.50;5063115;28;20059;-80
2021/07/21 04:04:10;;;;;;;13.60;10.10;;;;;;;12.16;97.33;96662.31;5041342;28;20063;-77
2021/07/21 04:06:37;;;;;;;14.40;9.87;;;;;;;12.21;97.11;96662.69;5044647;28;20451;-79
2021/07/21 04:09:22;;;;;;;17.10;10.47;;;;;;;12.19;97.52;96663.81;5050012;28;20017;-79
2021/07/21 04:11:50;;;;;;;15.67;9.67;;;;;;;12.26;96.70;96663.00;5050434;28;20067;-79
2021/07/21 04:14:23;;;;;;;15.73;9.98;;;;;;;12.28;96.80;96662.88;5039796;28;20428;-81
2021/07/21 04:17:08;;;;;;;15.30;10.73;;;;;;;12.30;96.39;96663.53;5060868;28;20397;-79
2021/07/21 04:19:41;;;;;;;17.23;10.50;;;;;;;11.99;98.33;96677.22;5060106;28;20601;-80
2021/07/21 04:22:07;;;;;;;29.30;21.40;;;;;;;12.01;99.19;96675.28;5040627;28;20062;-79
2021/07/21 04:24:44;;;;;;;26.25;18.48;;;;;;;12.27;98.12;96679.66;5053607;28;20024;-79
2021/07/21 04:27:10;;;;;;;17.23;11.17;;;;;;;12.24;97.77;96682.63;5054218;28;20094;-79
2021/07/21 04:29:41;;;;;;;18.43;10.83;;;;;;;12.07;99.32;96683.53;5054683;28;20024;-79
2021/07/21 04:32:08;;;;;;;17.40;10.43;;;;;;;12.15;98.69;96683.59;5061210;28;20032;-79
2021/07/21 04:34:35;;;;;;;17.60;10.70;;;;;;;12.23;98.01;96684.41;5037525;28;20411;-79
2021/07/21 04:37:01;;;;;;;17.07;11.00;;;;;;;12.26;97.70;96684.09;5055750;28;20037;-80
2021/07/21 04:39:57;;;;;;;16.57;11.37;;;;;;;12.17;97.91;96687.72;5042265;28;20036;-80
2021/07/21 04:42:43;;;;;;;16.67;11.10;;;;;;;11.96;99.81;96693.34;5065548;28;20094;-79
2021/07/21 04:45:12;;;;;;;18.83;12.43;;;;;;;11.97;99.77;96697.66;5049992;28;20039;-79
2021/07/21 04:47:41;;;;;;;16.07;10.90;;;;;;;11.84;100.00;96692.00;5063670;28;20084;-80
2021/07/21 04:50:10;;;;;;;18.63;11.13;;;;;;;11.95;100.00;96696.97;5055148;28;20036;-79
2021/07/21 04:52:38;;;;;;;15.53;10.53;;;;;;;12.23;99.26;96688.88;5049624;28;20466;-78
2021/07/21 04:55:06;;;;;;;16.40;10.87;;;;;;;12.27;99.07;96700.75;5051359;28;20598;-79
2021/07/21 04:57:32;;;;;;;15.93;10.80;;;;;;;12.45;97.80;96696.22;5050787;28;20021;-79
2021/07/21 05:00:06;;;;;;;18.90;12.67;;;;;;;12.46;98.11;96700.50;5050481;28;20381;-79
2021/07/21 05:03:01;;;;;;;17.33;11.87;;;;;;;12.39;98.10;96706.59;5055789;28;20037;-78
2021/07/21 05:05:28;;;;;;;17.23;11.63;;;;;;;12.33;98.90;96694.84;5042720;28;20493;-80
2021/07/21 05:07:58;;;;;;;19.77;12.00;;;;;;;12.57;98.17;96703.84;5059863;28;20108;-81
2021/07/21 05:10:25;;;;;;;18.20;11.27;;;;;;;12.63;96.44;96704.03;5063225;28;20040;-78
2021/07/21 05:12:51;;;;;;;17.57;12.00;;;;;;;12.62;97.44;96699.75;5052513;28;20039;-78
2021/07/21 05:15:23;;;;;;;18.60;10.90;;;;;;;12.92;96.06;96705.44;5048860;28;20032;-77
2021/07/21 05:17:51;;;;;;;16.63;10.30;;;;;;;13.14;94.10;96703.97;5061596;28;20545;-78
2021/07/21 05:20:24;;;;;;;15.70;11.32;;;;;;;13.27;94.63;96699.06;5044394;28;20020;-77
2021/07/21 05:22:58;;;;;;;19.33;10.23;;;;;;;13.07;95.53;96702.97;5071580;28;20062;-78
2021/07/21 05:25:33;;;;;;;16.87;10.97;;;;;;;13.28;95.94;96700.72;5051196;28;20048;-77
2021/07/21 05:28:17;;;;;;;17.10;10.40;;;;;;;13.69;93.55;96698.06;5056116;28;20723;-77
2021/07/21 05:30:43;;;;;;;15.50;11.07;;;;;;;14.06;91.56;96700.13;5041079;28;20485;-78
2021/07/21 05:33:11;;;;;;;15.70;10.07;;;;;;;14.27;90.39;96699.56;5054400;28;20046;-78
2021/07/21 05:35:43;;;;;;;18.03;10.90;;;;;;;14.38;91.24;96704.50;5055073;28;20028;-76
2021/07/21 05:38:16;;;;;;;17.83;10.37;;;;;;;14.74;89.16;96705.84;5052237;28;20099;-78
2021/07/21 05:40:43;;;;;;;15.07;10.40;;;;;;;15.04;86.86;96705.00;5057254;28;20485;-77
2021/07/21 05:43:17;;;;;;;17.20;10.97;;;;;;;15.14;86.71;96702.13;5040304;28;20055;-77
2021/07/21 05:46:02;;;;;;;16.53;10.63;;;;;;;15.24;84.98;96705.34;5036405;28;20033;-77
2021/07/21 05:48:34;;;;;;;14.13;9.25;;;;;;;15.42;84.49;96704.22;5043514;28;20090;-78
2021/07/21 05:51:19;;;;;;;17.87;10.63;;;;;;;15.59;84.40;96705.72;5061198;28;20038;-77
2021/07/21 05:53:47;;;;;;;20.60;14.77;;;;;;;15.60;84.69;96707.41;5078620;28;20718;-78
2021/07/21 05:56:15;;;;;;;34.67;27.53;;;;;;;15.93;82.28;96705.31;5040303;28;20020;-77
2021/07/21 05:58:48;;;;;;;14.33;9.67;;;;;;;16.14;82.55;96704.59;5059277;28;20713;-77
2021/07/21 06:01:15;;;;;;;15.70;10.03;;;;;;;16.04;81.04;96706.69;5043684;28;20601;-78
2021/07/21 06:03:43;;;;;;;13.97;9.67;;;;;;;16.23;80.57;96706.16;5061802;28;20035;-79
2021/07/21 06:06:33;;;;;;;14.60;8.77;;;;;;;16.66;78.49;96706.28;5042889;28;20729;-79
2021/07/21 06:09:17;;;;;;;18.50;10.60;;;;;;;16.89;76.94;96711.50;5059236;28;20048;-76
2021/07/21 06:12:09;;;;;;;14.67;9.77;;;;;;;17.01;76.63;96717.16;5044655;28;20040;-78
2021/07/21 06:14:35;;;;;;;13.73;9.70;;;;;;;17.03;76.83;96720.44;5057124;28;20044;-76
2021/07/21 06:17:02;;;;;;;18.02;10.05;;;;;;;16.76;78.03;96721.94;5059448;28;20119;-77
2021/07/21 06:19:35;;;;;;;14.90;8.82;;;;;;;17.77;74.23;96720.16;5050001;28;20024;-76
2021/07/21 06:22:03;;;;;;;14.70;8.85;;;;;;;17.63;72.34;96729.81;5053421;28;20060;-76
2021/07/21 06:24:48;;;;;;;15.25;10.45;;;;;;;17.28;76.91;96738.69;5066683;28;20496;-76
2021/07/21 06:27:26;;;;;;;15.90;9.70;;;;;;;17.99;72.36;96728.91;5063488;28;20662;-76
2021/07/21 06:29:57;;;;;;;16.73;9.10;;;;;;;17.80;73.50;96727.72;5042893;28;20079;-76
2021/07/21 06:32:23;;;;;;;15.15;10.15;;;;;;;18.29;71.43;96731.38;5051502;28;20027;-76
2021/07/21 06:34:50;;;;;;;13.05;9.63;;;;;;;18.31;71.05;96737.34;5063797;28;20028;-76
2021/07/21 06:37:16;;;;;;;13.63;10.18;;;;;;;18.93;68.05;96732.94;5052931;28;20034;-78
2021/07/21 06:39:43;;;;;;;14.30;8.10;;;;;;;19.52;67.87;96738.44;5063542;28;20024;-76
2021/07/21 06:42:11;;;;;;;11.30;8.48;;;;;;;19.21;65.97;96743.47;5055373;28;20029;-76
2021/07/21 06:44:42;;;;;;;13.70;10.02;;;;;;;18.68;70.29;96746.75;5068743;28;20024;-77
2021/07/21 06:47:23;;;;;;;13.80;10.02;;;;;;;19.54;66.21;96744.38;5041740;28;20116;-77
2021/07/21 06:49:57;;;;;;;13.70;9.60;;;;;;;19.73;66.29;96742.78;5057210;28;20477;-77
2021/07/21 06:52:24;;;;;;;13.35;9.65;;;;;;;19.90;65.56;96739.72;5053161;28;20115;-77
2021/07/21 06:54:52;;;;;;;13.65;10.13;;;;;;;20.57;62.05;96743.16;5085408;28;20020;-77
2021/07/21 06:57:18;;;;;;;14.95;10.18;;;;;;;20.93;61.58;96754.13;5063778;28;20189;-77
2021/07/21 06:59:44;;;;;;;13.57;9.63;;;;;;;21.07;59.45;96748.72;5041495;28;20100;-77
2021/07/21 07:02:17;;;;;;;14.35;8.95;;;;;;;21.22;61.32;96749.25;5049269;28;20123;-77
2021/07/21 07:05:10;;;;;;;12.63;8.40;;;;;;;21.63;58.49;96750.72;5048054;28;20048;-78
2021/07/21 07:07:54;;;;;;;12.40;9.05;;;;;;;21.14;60.39;96749.53;5056006;28;20200;-77
2021/07/21 07:10:38;;;;;;;10.88;8.02;;;;;;;22.01;56.95;96752.47;5055362;28;20066;-77
2021/07/21 07:13:05;;;;;;;14.65;8.93;;;;;;;22.16;56.89;96752.16;5072826;28;20123;-77
2021/07/21 07:15:31;;;;;;;14.77;8.65;;;;;;;22.20;56.53;96751.53;5060632;28;20028;-76
2021/07/21 07:17:57;;;;;;;12.65;9.25;;;;;;;22.11;57.57;96752.81;5032606;28;20028;-77
2021/07/21 07:20:23;;;;;;;15.50;10.00;;;;;;;22.06;58.32;96749.94;5070666;28;20027;-77
2021/07/21 07:22:49;;;;;;;13.80;11.13;;;;;;;22.98;53.63;96744.75;5059842;28;20028;-77
2021/07/21 07:25:14;;;;;;;13.50;9.75;;;;;;;23.28;53.24;96755.50;5071628;28;20056;-77
2021/07/21 07:27:40;;;;;;;17.08;9.68;;;;;;;21.66;57.63;96758.28;5055635;28;20036;-77
2021/07/21 07:30:07;;;;;;;12.63;8.80;;;;;;;21.95;58.36;96756.84;5064846;28;20492;-77
2021/07/21 07:32:32;;;;;;;13.40;8.27;;;;;;;23.52;54.10;96748.38;5052713;28;20071;-77
2021/07/21 07:34:58;;;;;;;14.93;9.95;;;;;;;24.41;51.01;96748.41;5056589;28;20027;-77
2021/07/21 07:37:24;;;;;;;15.43;10.93;;;;;;;24.29;50.50;96744.91;5047879;28;20036;-77
2021/07/21 07:39:50;;;;;;;12.80;8.13;;;;;;;24.42;50.59;96744.69;5052171;28;20020;-77
2021/07/21 07:42:16;;;;;;;14.00;8.77;;;;;;;25.37;47.85;96735.38;5058822;28;20027;-77
2021/07/21 07:44:42;;;;;;;14.52;8.98;;;;;;;23.99;48.98;96735.88;5049426;28;20106;-76
2021/07/21 07:47:08;;;;;;;9.65;7.15;;;;;;;25.09;46.68;96730.78;5057336;28;20504;-77
2021/07/21 07:49:33;;;;;;;11.32;7.93;;;;;;;25.49;45.75;96732.63;5041496;28;20116;-77
2021/07/21 07:51:59;;;;;;;10.55;7.30;;;;;;;26.01;44.49;96729.78;5066393;28;20106;-78
2021/07/21 07:54:25;;;;;;;13.48;7.85;;;;;;;26.28;43.61;96724.53;5064694;28;20028;-78
2021/07/21 07:56:51;;;;;;;20.30;12.30;;;;;;;26.17;44.62;96733.53;5060603;28;20021;-77
2021/07/21 07:59:17;;;;;;;10.98;8.18;;;;;;;24.80;46.77;96736.09;5051018;28;20023;-75
2021/07/21 08:01:43;;;;;;;11.85;8.15;;;;;;;22.86;51.31;96741.16;5068699;28;20416;-75
2021/07/21 08:04:08;;;;;;;11.80;8.27;;;;;;;25.36;45.06;96722.97;5046625;28;20028;-78
2021/07/21 08:06:35;;;;;;;9.43;7.07;;;;;;;25.93;43.13;96728.31;5059926;28;20035;-77
2021/07/21 08:09:03;;;;;;;11.13;7.45;;;;;;;25.68;43.41;96722.44;5043041;28;20028;-77
2021/07/21 08:11:29;;;;;;;11.55;7.30;;;;;;;26.32;42.53;96725.66;5059128;28;20055;-77
2021/07/21 08:13:54;;;;;;;11.23;6.85;;;;;;;27.25;40.36;96720.44;5078856;28;20104;-77
2021/07/21 08:16:20;;;;;;;12.98;7.65;;;;;;;25.34;44.08;96731.28;5058614;28;20405;-77
2021/07/21 08:18:46;;;;;;;12.15;7.22;;;;;;;25.59;44.89;96733.63;5040456;28;20017;-77
2021/07/21 08:21:12;;;;;;;13.35;7.68;;;;;;;26.82;41.04;96730.16;5088836;28;20032;-77
2021/07/21 08:23:38;;;;;;;14.55;7.72;;;;;;;28.22;38.66;96726.75;5051231;28;20020;-77
2021/07/21 08:26:04;;;;;;;11.38;7.15;;;;;;;28.41;38.75;96728.00;5071379;28;20063;-79
2021/07/21 08:28:31;;;;;;;12.90;7.75;;;;;;;26.58;41.63;96734.97;5053657;28;20805;-77
2021/07/21 08:30:58;;;;;;;11.60;7.60;;;;;;;27.80;39.39;96722.09;5062902;28;20042;-77
2021/07/21 08:33:24;;;;;;;10.57;7.30;;;;;;;28.32;36.93;96718.69;5064703;28;20437;-77
2021/07/21 08:35:50;;;;;;;11.55;9.23;;;;;;;28.85;37.12;96719.56;5060702;28;20024;-77
2021/07/21 08:38:16;;;;;;;9.70;7.05;;;;;;;29.22;36.14;96720.53;5059542;28;20027;-77
2021/07/21 08:40:42;;;;;;;11.68;6.78;;;;;;;28.29;37.19;96726.50;5061306;28;20064;-78
2021/07/21 08:43:09;;;;;;;10.48;6.85;;;;;;;29.75;34.15;96727.47;5049932;28;20031;-77
2021/07/21 08:45:35;;;;;;;13.88;6.57;;;;;;;28.64;35.92;96734.09;5057190;28;20470;-78
2021/07/21 08:48:03;;;;;;;10.02;6.68;;;;;;;28.90;35.28;96724.97;5046328;28;20549;-78
2021/07/21 08:50:29;;;;;;;11.10;6.93;;;;;;;28.00;37.37;96723.31;5045153;28;20032;-78
2021/07/21 08:52:56;;;;;;;11.07;7.22;;;;;;;27.29;37.94;96728.84;5059647;28;20028;-77
2021/07/21 08:55:24;;;;;;;11.27;8.07;;;;;;;28.55;35.16;96731.03;5039888;28;20413;-78
2021/07/21 08:57:51;;;;;;;10.65;6.85;;;;;;;28.51;35.49;96731.84;5057728;28;20025;-78
2021/07/21 09:00:18;;;;;;;10.65;7.00;;;;;;;28.68;34.84;96729.78;5058797;28;20028;-77
2021/07/21 09:02:45;;;;;;;9.45;7.70;;;;;;;28.30;35.86;96726.25;5087271;28;20569;-78
2021/07/21 09:05:14;;;;;;;13.65;10.38;;;;;;;29.45;34.06;96727.38;5041594;28;20028;-78
2021/07/21 09:07:41;;;;;;;12.88;7.25;;;;;;;28.00;36.50;96726.03;5036538;28;20013;-78
2021/07/21 09:10:13;;;;;;;10.00;6.93;;;;;;;30.14;33.72;96731.53;5064400;28;20636;-78
2021/07/21 09:12:44;;;;;;;10.35;7.47;;;;;;;29.76;31.77;96739.09;5063298;28;20034;-78
2021/07/21 09:15:12;;;;;;;9.73;6.78;;;;;;;30.14;32.84;96724.19;5044579;28;20044;-78
2021/07/21 09:18:06;;;;;;;10.95;6.90;;;;;;;30.21;32.27;96722.03;5040327;28;20386;-78
2021/07/21 09:20:37;;;;;;;12.55;7.13;;;;;;;30.23;31.71;96721.78;5066201;28;20396;-79
2021/07/21 09:23:03;;;;;;;8.23;6.17;;;;;;;31.17;30.71;96714.75;5059043;28;20133;-78
2021/07/21 09:25:32;;;;;;;8.90;6.78;;;;;;;31.30;29.00;96715.22;5048000;28;20013;-79
2021/07/21 09:28:00;;;;;;;12.38;7.30;;;;;;;29.75;31.76;96722.03;5037958;28;20036;-80
2021/07/21 09:30:32;;;;;;;8.73;7.05;;;;;;;30.33;31.24;96723.69;5046979;28;20412;-79
2021/07/21 09:33:02;;;;;;;12.52;7.97;;;;;;;29.80;31.33;96721.22;5062349;28;20812;-77
2021/07/21 09:35:35;;;;;;;9.25;7.13;;;;;;;28.67;33.96;96726.25;5047994;28;20032;-78
2021/07/21 09:38:05;;;;;;;10.10;7.40;;;;;;;28.03;34.87;96733.63;5054177;28;20675;-78
2021/07/21 09:40:32;;;;;;;10.27;7.50;;;;;;;29.88;31.90;96731.53;5065764;28;20032;-77
2021/07/21 09:42:57;;;;;;;12.35;8.43;;;;;;;29.46;32.57;96729.00;5037886;28;20031;-82
2021/07/21 09:45:23;;;;;;;9.55;7.32;;;;;;;30.16;31.09;96735.59;5045002;28;20677;-79
2021/07/21 09:47:56;;;;;;;9.90;7.40;;;;;;;31.28;28.78;96723.63;5068089;28;20450;-79
2021/07/21 09:50:24;;;;;;;10.10;7.05;;;;;;;28.85;32.94;96727.69;5042545;28;20033;-78
2021/07/21 09:53:04;;;;;;;8.20;6.70;;;;;;;27.72;35.06;96731.44;5068533;28;20029;-79
2021/07/21 09:55:31;;;;;;;10.80;8.10;;;;;;;30.07;32.63;96739.94;5072318;28;20173;-78
2021/07/21 09:58:02;;;;;;;10.48;7.45;;;;;;;31.34;29.18;96730.72;5068295;28;20066;-78
2021/07/21 10:00:38;;;;;;;11.27;8.13;;;;;;;30.85;29.62;96736.06;5028377;28;20389;-78
2021/07/21 10:03:18;;;;;;;12.48;8.00;;;;;;;31.81;27.39;96729.31;5070145;28;20033;-78
2021/07/21 10:05:57;;;;;;;12.73;8.23;;;;;;;29.68;31.72;96732.34;5068142;28;20032;-78
2021/07/21 10:08:30;;;;;;;10.18;7.28;;;;;;;29.58;31.17;96726.88;5056993;28;20032;-78
2021/07/21 10:10:58;;;;;;;11.38;7.78;;;;;;;27.54;34.47;96736.41;5052619;28;20068;-77
2021/07/21 10:13:24;;;;;;;13.02;7.78;;;;;;;27.81;34.98;96731.84;5041300;28;20112;-78
2021/07/21 10:15:54;;;;;;;10.40;7.55;;;;;;;27.19;36.73;96738.47;5037547;28;20021;-78
2021/07/21 10:18:22;;;;;;;11.43;7.30;;;;;;;30.18;31.62;96730.75;5037876;28;20428;-78
2021/07/21 10:20:49;;;;;;;12.23;7.57;;;;;;;29.48;32.75;96724.13;5055213;28;20119;-78
2021/07/21 10:23:17;;;;;;;9.30;7.32;;;;;;;31.94;29.33;96717.03;5042109;28;20162;-78
2021/07/21 10:25:43;;;;;;;9.50;7.75;;;;;;;32.35;28.77;96722.09;5038710;28;20012;-79
2021/07/21 10:28:10;;;;;;;10.35;7.75;;;;;;;33.26;28.05;96714.81;5049790;28;20817;-78
2021/07/21 10:30:39;;;;;;;10.73;7.88;;;;;;;32.72;28.71;96716.00;5078126;28;20103;-77
2021/07/21 10:33:05;;;;;;;10.57;7.45;;;;;;;31.76;29.87;96725.81;5064401;28;20067;-78
2021/07/21 10:35:31;;;;;;;13.02;7.35;;;;;;;31.59;28.96;96720.78;5042708;28;20025;-78
2021/07/21 10:37:58;;;;;;;10.75;7.80;;;;;;;32.96;28.14;96720.69;5062545;28;20041;-78
2021/07/21 10:40:26;;;;;;;10.18;8.10;;;;;;;32.13;28.31;96719.88;5051133;28;20043;-78
2021/07/21 10:42:55;;;;;;;11.00;7.25;;;;;;;32.89;26.15;96712.81;5059376;28;20166;-78
2021/07/21 10:45:28;;;;;;;10.73;8.73;;;;;;;31.36;29.03;96717.66;5060850;28;20020;-78
2021/07/21 10:48:38;;;;;;;18.23;12.38;;;;;;;31.52;28.97;96726.50;5042952;28;20029;-80
2021/07/21 10:50:59;;;;;;;8.95;7.32;;;;;;;32.84;27.07;96712.91;5041269;28;20040;-78
2021/07/21 10:59:13;;;;;;;8.65;7.68;;;;;;;31.78;28.59;96710.03;5074761;28;20539;-78
2021/07/21 11:01:41;;;;;;;10.00;7.68;;;;;;;32.28;27.69;96710.75;5043040;28;20482;-78
2021/07/21 11:04:07;;;;;;;9.77;7.72;;;;;;;31.95;28.28;96706.94;5059312;28;20043;-77
2021/07/21 11:06:40;;;;;;;10.82;8.65;;;;;;;32.14;28.70;96708.69;5042919;28;20029;-78
2021/07/21 11:09:26;;;;;;;13.43;8.05;;;;;;;32.68;29.16;96703.28;5057436;28;20326;-78
2021/07/21 11:11:56;;;;;;;11.63;8.40;;;;;;;32.30;28.27;96703.09;5045596;28;20033;-78
2021/07/21 11:14:24;;;;;;;10.80;7.32;;;;;;;32.83;28.41;96705.81;5062944;28;20107;-78
2021/07/21 11:16:52;;;;;;;9.88;7.57;;;;;;;33.21;27.72;96700.47;5075369;28;20021;-79
2021/07/21 11:19:46;;;;;;;12.23;10.10;;;;;;;33.45;26.19;96698.50;5036519;28;20008;-79
2021/07/21 11:22:26;;;;;;;26.15;23.48;;;;;;;33.16;26.07;96703.25;5054532;28;20047;-78
2021/07/21 11:25:10;;;;;;;10.55;7.90;;;;;;;32.22;26.98;96706.44;5046895;28;20032;-78
2021/07/21 11:27:49;;;;;;;11.48;8.60;;;;;;;32.49;27.96;96701.28;5053969;28;20036;-78
2021/07/21 11:30:45;;;;;;;10.13;8.00;;;;;;;32.62;27.52;96691.63;5060249;28;20027;-78
2021/07/21 11:33:55;;;;;;;10.00;7.88;;;;;;;32.09;28.08;96695.13;5060336;28;20027;-78
2021/07/21 11:36:40;;;;;;;10.07;7.97;;;;;;;29.83;31.45;96698.97;5045492;28;20020;-78
2021/07/21 11:39:08;;;;;;;12.45;9.95;;;;;;;32.02;29.46;96691.91;5067317;28;20105;-79
2021/07/21 11:41:53;;;;;;;13.43;8.45;;;;;;;33.18;27.02;96690.16;5054307;28;20035;-79
2021/07/21 11:44:30;;;;;;;10.88;7.38;;;;;;;33.85;26.58;96692.75;5065951;28;20086;-79
2021/07/21 11:46:57;;;;;;;12.00;8.40;;;;;;;34.19;25.53;96697.94;5078935;28;20036;-78
2021/07/21 11:49:25;;;;;;;10.30;7.35;;;;;;;33.47;26.99;96690.03;5051746;28;20074;-78